Elberfeld, Indiana
Current Conditions -  °F | °C
As of 3:54 AM on Friday 24 Oct 2014 (Local Time) from KEVV Reporting Station
Broken Clouds Broken Clouds  
Wind Chill: 43°   Ceiling: 4600
Heat Index: 43°   Visibility: 8mi
Dew Point: 41°   Wind: 0mph
Humidity: 93%   Direction: NA
Pressure: 30.12"   Gusts: NA
Location:  38.16°N, 87.45°W
Report Text: KEVV 240854Z AUTO 00000KT 8SM BKN046 06/05 A3012 RMK AO2 SLP201 T00610050 55001
Loading
Personal Weather Stations






























Interactive Weather Map
Tropical Storm Tracking
New forecast layout! Learn more

10-Day Weather Forecast

Advertisements
Track Severe Weather on mobile